Time;durP1;ratioP1;P1;durP2;ratioP2;P2;SDS_P1;SDS_P2;PMS_P1;PMS_P2;Temp;Humidity;BMP_temperature;BMP_pressure;BME280_temperature;BME280_humidity;BME280_pressure;Samples;Min_cycle;Max_cycle;Signal;HPM_P1;HPM_P2
2023/08/21 00:01:40;;;;;;;5.50;4.90;;;;;;;24.48;60.90;98311.25;5031431;28;20197;-58
2023/08/21 00:04:05;;;;;;;5.50;5.00;;;;;;;24.50;60.75;98325.94;5031412;28;20253;-57
2023/08/21 00:06:31;;;;;;;6.13;5.45;;;;;;;24.35;60.76;98295.31;5031703;28;20188;-57
2023/08/21 00:08:57;;;;;;;7.13;5.30;;;;;;;24.51;60.37;98311.72;5031589;28;20636;-58
2023/08/21 00:11:22;;;;;;;7.13;5.55;;;;;;;24.49;60.52;98303.13;5031003;28;20181;-58
2023/08/21 00:13:49;;;;;;;6.05;5.22;;;;;;;24.58;60.22;98315.25;5031018;28;20328;-58
2023/08/21 00:16:16;;;;;;;8.48;5.20;;;;;;;24.58;60.74;98320.53;5031214;28;20236;-58
2023/08/21 00:18:41;;;;;;;8.52;5.72;;;;;;;24.50;59.86;98288.91;5031236;28;20196;-58
2023/08/21 00:21:07;;;;;;;8.63;5.55;;;;;;;24.58;60.15;98303.84;5031247;28;20180;-57
2023/08/21 00:23:32;;;;;;;10.35;5.53;;;;;;;24.61;59.06;98304.25;5031421;28;20201;-57
2023/08/21 00:25:58;;;;;;;7.68;5.05;;;;;;;24.75;59.54;98326.31;5031113;28;20182;-57
2023/08/21 00:28:23;;;;;;;7.30;5.28;;;;;;;24.72;59.32;98329.38;5031106;28;20235;-57
2023/08/21 00:30:48;;;;;;;5.43;4.95;;;;;;;24.54;59.36;98298.09;5031054;28;20232;-57
2023/08/21 00:33:14;;;;;;;5.88;5.10;;;;;;;24.55;59.48;98297.06;5031049;28;20220;-57
2023/08/21 00:35:39;;;;;;;5.18;4.70;;;;;;;24.58;59.83;98294.06;5028433;28;20629;-57
2023/08/21 00:38:05;;;;;;;9.90;5.45;;;;;;;24.52;59.38;98302.75;5028486;28;20764;-57
2023/08/21 00:40:31;;;;;;;5.45;4.85;;;;;;;24.55;59.26;98291.78;5028518;28;20275;-57
2023/08/21 00:42:56;;;;;;;4.95;4.55;;;;;;;24.69;58.50;98314.69;5028493;28;20174;-57
2023/08/21 00:45:22;;;;;;;7.03;5.00;;;;;;;24.70;58.03;98300.44;5028366;28;20633;-57
2023/08/21 00:47:47;;;;;;;5.00;4.57;;;;;;;24.73;57.96;98304.53;5028387;28;20181;-56
2023/08/21 00:50:13;;;;;;;7.63;5.30;;;;;;;24.60;58.22;98285.91;5028548;28;20563;-57
2023/08/21 00:52:39;;;;;;;6.03;4.97;;;;;;;24.52;58.86;98286.88;5028317;28;20584;-57
2023/08/21 00:55:07;;;;;;;9.38;5.45;;;;;;;24.71;58.95;98307.38;5028533;28;20198;-56
2023/08/21 00:57:33;;;;;;;6.00;5.38;;;;;;;24.65;58.96;98310.78;5028242;28;20201;-57
2023/08/21 01:00:01;;;;;;;5.85;4.60;;;;;;;24.64;59.07;98314.47;5032291;28;20216;-57
2023/08/21 01:02:26;;;;;;;10.25;5.07;;;;;;;24.48;58.50;98298.88;5031987;28;20195;-57
2023/08/21 01:04:51;;;;;;;8.65;5.10;;;;;;;24.57;58.17;98310.13;5032268;28;20209;-57
2023/08/21 01:07:17;;;;;;;5.05;4.30;;;;;;;24.54;57.26;98297.25;5047225;28;20299;-57
2023/08/21 01:10:10;;;;;;;4.70;4.30;;;;;;;24.69;57.14;98330.56;5052020;28;20173;-57
2023/08/21 01:12:50;;;;;;;4.68;4.15;;;;;;;24.45;56.94;98320.41;5052035;28;20260;-57
2023/08/21 01:15:16;;;;;;;5.18;4.68;;;;;;;24.60;57.44;98338.84;5051997;28;20535;-56
2023/08/21 01:17:43;;;;;;;4.65;4.20;;;;;;;24.55;57.35;98328.03;5051906;28;20236;-57
2023/08/21 01:20:09;;;;;;;7.03;5.03;;;;;;;24.46;58.07;98313.28;5052097;28;20184;-57
2023/08/21 01:22:36;;;;;;;5.75;4.78;;;;;;;24.24;58.38;98299.31;5051968;28;20276;-57
2023/08/21 01:25:03;;;;;;;7.97;5.03;;;;;;;24.42;57.99;98325.25;5051928;28;20185;-57
2023/08/21 01:27:28;;;;;;;5.43;4.65;;;;;;;24.14;58.16;98298.84;5051804;28;20201;-57
2023/08/21 01:29:54;;;;;;;5.60;4.57;;;;;;;24.26;57.84;98321.09;5051789;28;20177;-57
2023/08/21 01:32:32;;;;;;;4.60;4.25;;;;;;;24.31;58.16;98336.41;5050803;28;20177;-57
2023/08/21 01:34:58;;;;;;;7.35;5.00;;;;;;;24.20;59.01;98326.34;5034287;28;20658;-57
2023/08/21 01:37:25;;;;;;;7.18;5.43;;;;;;;24.06;59.71;98286.78;5034114;28;20208;-57
2023/08/21 01:39:51;;;;;;;5.53;4.82;;;;;;;24.13;59.27;98291.09;5034239;28;20321;-57
2023/08/21 01:42:16;;;;;;;7.22;5.25;;;;;;;24.09;59.13;98311.81;5034083;28;20259;-57
2023/08/21 01:44:45;;;;;;;4.90;4.50;;;;;;;24.03;59.13;98291.44;5034107;28;20181;-57
2023/08/21 01:47:11;;;;;;;8.65;5.03;;;;;;;23.98;59.00;98299.13;5034045;28;20288;-57
2023/08/21 01:49:36;;;;;;;6.18;4.63;;;;;;;24.08;59.24;98324.44;5034012;28;20189;-57
2023/08/21 01:52:02;;;;;;;5.55;5.05;;;;;;;24.00;60.24;98298.13;5033677;28;20185;-57
2023/08/21 01:54:27;;;;;;;5.63;5.00;;;;;;;23.98;60.15;98313.34;5033888;28;20232;-57
2023/08/21 01:56:52;;;;;;;5.32;4.07;;;;;;;24.01;59.97;98326.22;5033817;28;20193;-57
2023/08/21 01:59:19;;;;;;;5.70;4.75;;;;;;;24.01;59.95;98331.50;5033856;28;20265;-57
2023/08/21 02:01:45;;;;;;;5.20;4.70;;;;;;;24.01;59.43;98329.66;5033548;28;20597;-57
2023/08/21 02:04:10;;;;;;;6.00;4.90;;;;;;;24.00;59.64;98311.34;5033745;28;20239;-57
2023/08/21 02:06:35;;;;;;;5.00;4.43;;;;;;;23.86;59.75;98286.59;5033674;28;20170;-57
2023/08/21 02:09:01;;;;;;;5.15;4.75;;;;;;;23.90;59.48;98300.28;5033551;28;20193;-57
2023/08/21 02:11:26;;;;;;;5.03;4.45;;;;;;;24.04;60.05;98330.09;5033337;28;20166;-57
2023/08/21 02:13:52;;;;;;;7.72;4.90;;;;;;;23.74;60.03;98290.78;5033620;28;20669;-57
2023/08/21 02:16:17;;;;;;;5.53;4.88;;;;;;;23.95;59.95;98325.13;5033432;28;20181;-58
2023/08/21 02:18:42;;;;;;;4.97;4.57;;;;;;;23.81;60.12;98295.09;5033559;28;20573;-58
2023/08/21 02:21:08;;;;;;;5.18;4.70;;;;;;;23.98;59.32;98323.94;5033484;28;20205;-58
2023/08/21 02:23:33;;;;;;;5.30;4.80;;;;;;;23.83;59.63;98303.66;5033444;28;20212;-57
2023/08/21 02:25:59;;;;;;;8.05;4.93;;;;;;;23.77;59.49;98300.16;5033386;28;20601;-58
2023/08/21 02:28:24;;;;;;;8.73;4.75;;;;;;;23.67;59.95;98294.38;5033364;28;20174;-58
2023/08/21 02:30:50;;;;;;;4.82;4.47;;;;;;;23.88;60.01;98323.47;5033245;28;20178;-58
2023/08/21 02:33:15;;;;;;;8.48;4.80;;;;;;;23.71;60.25;98306.19;5032901;28;20206;-57
2023/08/21 02:35:41;;;;;;;5.40;4.90;;;;;;;23.73;60.15;98311.09;5032916;28;20204;-57
2023/08/21 02:38:06;;;;;;;7.30;4.97;;;;;;;23.79;59.92;98320.91;5033091;28;20726;-58
2023/08/21 02:40:31;;;;;;;5.35;4.60;;;;;;;23.77;59.67;98316.00;5033112;28;20174;-58
2023/08/21 02:42:57;;;;;;;7.35;4.60;;;;;;;23.65;60.65;98314.88;5033059;28;20182;-58
2023/08/21 02:45:23;;;;;;;5.22;4.72;;;;;;;23.41;60.15;98287.00;5033075;28;20662;-57
2023/08/21 02:47:48;;;;;;;5.18;4.65;;;;;;;23.54;60.72;98324.09;5033015;28;20174;-58
2023/08/21 02:50:14;;;;;;;6.45;5.22;;;;;;;23.40;60.79;98305.69;5032713;28;20657;-58
2023/08/21 02:52:39;;;;;;;7.70;5.38;;;;;;;23.41;61.75;98317.88;5030421;28;20598;-58
2023/08/21 02:55:05;;;;;;;6.22;4.43;;;;;;;23.18;61.83;98288.16;5030387;28;20185;-57
2023/08/21 02:57:31;;;;;;;6.07;4.78;;;;;;;23.36;62.23;98328.19;5030304;28;20304;-58
2023/08/21 02:59:57;;;;;;;7.28;4.90;;;;;;;23.20;62.13;98291.47;5030261;28;20220;-58
2023/08/21 03:02:22;;;;;;;7.45;5.15;;;;;;;23.28;61.85;98309.81;5030294;28;20205;-58
2023/08/21 03:04:49;;;;;;;5.30;4.80;;;;;;;23.39;61.65;98327.81;5030159;28;20181;-58
2023/08/21 03:07:14;;;;;;;7.63;4.90;;;;;;;23.35;61.99;98310.69;5029896;28;20703;-57
2023/08/21 03:09:40;;;;;;;5.63;5.13;;;;;;;23.39;61.38;98319.88;5030046;28;20216;-58
2023/08/21 03:12:07;;;;;;;5.22;4.78;;;;;;;23.26;61.89;98301.28;5029943;28;20292;-58
2023/08/21 03:14:32;;;;;;;5.32;4.85;;;;;;;23.38;61.85;98320.91;5029876;28;20185;-58
2023/08/21 03:16:58;;;;;;;4.88;4.47;;;;;;;23.23;61.63;98293.72;5009849;28;20214;-58
2023/08/21 03:19:23;;;;;;;6.78;4.70;;;;;;;23.27;61.78;98318.75;5009989;28;20221;-58
2023/08/21 03:21:49;;;;;;;6.03;4.72;;;;;;;23.19;62.01;98318.88;5009385;28;20190;-58
2023/08/21 03:24:14;;;;;;;6.38;5.60;;;;;;;23.01;62.26;98298.13;5024797;28;20182;-58
2023/08/21 03:26:40;;;;;;;5.20;4.75;;;;;;;22.97;62.45;98288.13;5029646;28;20707;-58
2023/08/21 03:29:05;;;;;;;6.50;4.60;;;;;;;23.10;61.90;98302.28;5029801;28;20264;-58
2023/08/21 03:31:31;;;;;;;5.80;5.07;;;;;;;23.00;62.33;98290.38;5029628;28;20279;-58
2023/08/21 03:33:56;;;;;;;5.15;4.65;;;;;;;23.08;62.43;98316.69;5029621;28;20182;-58
2023/08/21 03:36:30;;;;;;;6.10;4.97;;;;;;;23.21;62.10;98330.88;5029479;28;20244;-58
2023/08/21 03:38:56;;;;;;;5.22;4.72;;;;;;;22.96;62.49;98302.31;5029553;28;20189;-58
2023/08/21 03:41:22;;;;;;;9.07;5.43;;;;;;;23.00;62.35;98316.75;5029396;28;20717;-58
2023/08/21 03:43:47;;;;;;;6.90;4.43;;;;;;;22.92;62.37;98293.97;5029439;28;20207;-58
2023/08/21 03:46:13;;;;;;;14.30;5.25;;;;;;;22.87;62.79;98306.06;5029409;28;20224;-58
2023/08/21 03:48:38;;;;;;;5.47;5.03;;;;;;;22.94;62.94;98312.22;5030986;28;20186;-58
2023/08/21 03:51:03;;;;;;;9.63;5.10;;;;;;;23.08;62.59;98340.44;5031790;28;20548;-58
2023/08/21 03:53:29;;;;;;;12.18;4.88;;;;;;;23.15;62.39;98336.03;5031610;28;20192;-58
2023/08/21 03:55:54;;;;;;;5.65;5.15;;;;;;;22.87;62.56;98301.59;5031434;28;20215;-58
2023/08/21 03:58:20;;;;;;;10.43;4.93;;;;;;;22.84;62.56;98301.16;5031553;28;20205;-58
2023/08/21 04:00:45;;;;;;;5.65;4.82;;;;;;;22.91;62.52;98305.50;5031555;28;20600;-58
2023/08/21 04:03:11;;;;;;;8.57;5.05;;;;;;;22.93;61.96;98321.16;5031191;28;20169;-58
2023/08/21 04:05:37;;;;;;;7.00;5.13;;;;;;;22.75;62.50;98307.53;5031509;28;20214;-58
2023/08/21 04:08:03;;;;;;;5.82;4.55;;;;;;;23.01;62.16;98342.19;5031488;28;20190;-58
2023/08/21 04:10:28;;;;;;;6.03;4.72;;;;;;;23.05;62.37;98343.44;5031533;28;20521;-58
2023/08/21 04:12:53;;;;;;;5.82;4.53;;;;;;;23.04;61.99;98333.88;5031370;28;20644;-58
2023/08/21 04:15:19;;;;;;;6.00;4.43;;;;;;;23.14;61.69;98344.97;5031364;28;20204;-58
2023/08/21 04:17:44;;;;;;;9.75;4.90;;;;;;;23.17;61.66;98350.72;5031260;28;20198;-58
2023/08/21 04:20:10;;;;;;;6.32;4.95;;;;;;;23.21;61.33;98351.19;5031049;28;20174;-58
2023/08/21 04:22:36;;;;;;;7.55;4.85;;;;;;;22.99;61.56;98313.31;5031292;28;20170;-57
2023/08/21 04:25:01;;;;;;;7.90;5.05;;;;;;;22.99;61.66;98312.50;5031198;28;20247;-57
2023/08/21 04:27:26;;;;;;;5.95;4.50;;;;;;;22.96;62.08;98320.81;5031181;28;20549;-56
2023/08/21 04:29:53;;;;;;;5.25;4.50;;;;;;;23.08;61.74;98335.16;5031142;28;20637;-57
2023/08/21 04:32:18;;;;;;;5.28;4.78;;;;;;;23.05;61.44;98314.41;5031019;28;20202;-57
2023/08/21 04:34:44;;;;;;;5.75;4.90;;;;;;;23.07;61.23;98313.22;5031103;28;20185;-57
2023/08/21 04:37:09;;;;;;;6.35;4.28;;;;;;;23.18;61.25;98335.69;5030862;28;20208;-57
2023/08/21 04:39:36;;;;;;;4.65;4.25;;;;;;;23.01;61.32;98307.88;5031009;28;20260;-57
2023/08/21 04:42:01;;;;;;;7.43;4.60;;;;;;;23.20;60.93;98336.34;5030676;28;20678;-57
2023/08/21 04:44:27;;;;;;;9.02;4.50;;;;;;;23.32;60.80;98356.78;5030764;28;20178;-57
2023/08/21 04:46:52;;;;;;;14.13;5.13;;;;;;;23.27;60.85;98350.44;5030936;28;20538;-57
2023/08/21 04:49:18;;;;;;;7.45;4.63;;;;;;;23.26;60.95;98356.72;5030630;28;20648;-57
2023/08/21 04:51:43;;;;;;;6.95;5.00;;;;;;;23.17;60.96;98334.06;5030835;28;20180;-57
2023/08/21 04:54:09;;;;;;;5.95;5.13;;;;;;;23.22;61.37;98356.28;5030782;28;20648;-57
2023/08/21 04:56:34;;;;;;;4.80;4.38;;;;;;;23.14;61.51;98344.97;5030991;28;20197;-57
2023/08/21 04:58:59;;;;;;;6.95;4.30;;;;;;;23.15;60.83;98333.41;5030879;28;20174;-57
2023/08/21 05:01:25;;;;;;;16.80;4.95;;;;;;;23.12;60.41;98325.84;5031006;28;20667;-57
2023/08/21 05:03:51;;;;;;;9.90;4.85;;;;;;;23.08;60.76;98316.69;5030770;28;20277;-57
2023/08/21 05:06:16;;;;;;;6.95;4.63;;;;;;;23.36;60.32;98352.78;5030706;28;20644;-57
2023/08/21 05:08:42;;;;;;;5.50;4.78;;;;;;;23.45;60.26;98354.31;5030262;28;20248;-57
2023/08/21 05:11:07;;;;;;;5.40;4.90;;;;;;;23.40;60.05;98345.28;5030704;28;20200;-57
2023/08/21 05:13:33;;;;;;;4.80;4.25;;;;;;;23.57;59.79;98357.25;5030642;28;20177;-57
2023/08/21 05:15:58;;;;;;;5.53;4.43;;;;;;;23.41;59.67;98328.44;5030648;28;20699;-58
2023/08/21 05:18:25;;;;;;;4.50;4.07;;;;;;;23.66;59.38;98361.44;5030634;28;20296;-58
2023/08/21 05:20:54;;;;;;;8.63;4.90;;;;;;;23.65;59.48;98352.66;5031058;28;20630;-57
2023/08/21 05:23:20;;;;;;;6.28;4.85;;;;;;;23.73;59.16;98361.28;5030721;28;20556;-58
2023/08/21 05:25:49;;;;;;;4.50;4.07;;;;;;;23.63;58.88;98330.09;5031031;28;20181;-58
2023/08/21 05:28:14;;;;;;;4.90;4.43;;;;;;;23.79;58.83;98357.91;5031022;28;20186;-58
2023/08/21 05:30:40;;;;;;;5.75;4.10;;;;;;;23.90;58.29;98353.16;5031036;28;20273;-58
2023/08/21 05:33:05;;;;;;;6.85;4.22;;;;;;;23.91;57.83;98329.19;5031029;28;20262;-58
2023/08/21 05:35:35;;;;;;;9.57;4.20;;;;;;;24.04;57.12;98334.56;5030909;28;20170;-58
2023/08/21 05:38:04;;;;;;;7.00;4.30;;;;;;;24.33;56.77;98366.13;5030893;28;20202;-58
2023/08/21 05:40:29;;;;;;;8.95;4.53;;;;;;;24.31;56.87;98360.22;5030880;28;20652;-58
2023/08/21 05:42:55;;;;;;;9.07;4.53;;;;;;;24.40;56.45;98356.41;5030865;28;20182;-57
2023/08/21 05:45:20;;;;;;;8.63;4.63;;;;;;;24.25;56.40;98332.69;5033728;28;20178;-58
2023/08/21 05:47:45;;;;;;;5.18;4.53;;;;;;;24.55;56.16;98360.56;5034877;28;20579;-57
2023/08/21 05:50:11;;;;;;;5.15;4.25;;;;;;;24.50;55.85;98341.81;5034517;28;20174;-58
2023/08/21 05:52:36;;;;;;;5.20;4.80;;;;;;;24.59;55.28;98364.50;5034367;28;20178;-58
2023/08/21 05:55:02;;;;;;;5.07;4.57;;;;;;;24.65;55.26;98363.72;5034417;28;20533;-58
2023/08/21 05:57:27;;;;;;;4.97;4.03;;;;;;;24.61;54.88;98340.50;5034309;28;20296;-58
2023/08/21 05:59:53;;;;;;;7.65;4.65;;;;;;;24.82;54.67;98369.50;5034400;28;20185;-58
2023/08/21 06:02:18;;;;;;;6.15;3.97;;;;;;;24.83;54.26;98342.03;5034331;28;20253;-58
2023/08/21 06:04:43;;;;;;;6.68;4.40;;;;;;;24.93;53.81;98356.56;5034258;28;20694;-58
2023/08/21 06:07:10;;;;;;;6.32;4.25;;;;;;;25.22;53.38;98374.81;5034194;28;20581;-58
2023/08/21 06:09:36;;;;;;;6.55;4.20;;;;;;;25.12;53.59;98355.00;5034202;28;20169;-58
2023/08/21 06:12:05;;;;;;;5.70;4.20;;;;;;;25.31;53.28;98386.88;5034111;28;20178;-58
2023/08/21 06:14:30;;;;;;;7.05;4.43;;;;;;;25.46;52.85;98381.44;5033712;28;20564;-58
2023/08/21 06:17:01;;;;;;;6.32;4.35;;;;;;;25.61;51.92;98368.84;5033836;28;20292;-58
2023/08/21 06:19:26;;;;;;;4.53;4.13;;;;;;;25.52;51.75;98354.97;5033997;28;20536;-58
2023/08/21 06:21:52;;;;;;;4.75;4.32;;;;;;;25.79;51.61;98393.78;5033880;28;20189;-58
2023/08/21 06:24:17;;;;;;;6.65;4.57;;;;;;;25.93;51.10;98398.09;5033789;28;20174;-58
2023/08/21 06:26:42;;;;;;;7.22;4.30;;;;;;;25.95;50.92;98374.84;5031317;28;20273;-58
2023/08/21 06:29:08;;;;;;;4.40;4.10;;;;;;;26.07;50.87;98369.75;5031455;28;20178;-58
2023/08/21 06:31:33;;;;;;;6.40;4.10;;;;;;;26.23;50.37;98379.97;5031366;28;20190;-58
2023/08/21 06:33:59;;;;;;;4.60;3.60;;;;;;;26.46;49.66;98393.63;5031321;28;20206;-58
2023/08/21 06:36:24;;;;;;;4.47;4.07;;;;;;;26.49;49.60;98374.66;5031289;28;20221;-58
2023/08/21 06:38:50;;;;;;;5.68;3.85;;;;;;;26.53;49.06;98374.00;5031327;28;20216;-57
2023/08/21 06:41:15;;;;;;;4.90;4.07;;;;;;;26.64;49.13;98372.63;5031294;28;20679;-57
2023/08/21 06:43:41;;;;;;;4.40;4.00;;;;;;;26.80;48.15;98383.59;5031288;28;20174;-58
2023/08/21 06:46:06;;;;;;;4.28;3.88;;;;;;;26.85;48.03;98373.19;5031020;28;20193;-58
2023/08/21 06:48:32;;;;;;;4.72;3.50;;;;;;;27.20;47.89;98406.41;5031160;28;20182;-58
2023/08/21 06:50:57;;;;;;;5.70;3.60;;;;;;;27.37;47.65;98396.94;5011223;28;20277;-58
2023/08/21 06:53:23;;;;;;;8.40;3.80;;;;;;;27.57;46.95;98404.81;5011195;28;20187;-58
2023/08/21 06:55:48;;;;;;;6.75;4.22;;;;;;;27.50;46.98;98372.94;5010167;28;20197;-57
2023/08/21 06:58:13;;;;;;;6.82;4.05;;;;;;;27.78;46.85;98404.53;5025548;28;20299;-57
2023/08/21 07:00:39;;;;;;;3.97;3.55;;;;;;;27.93;46.29;98413.84;5031014;28;20229;-57
2023/08/21 07:03:07;;;;;;;6.63;3.53;;;;;;;27.96;46.07;98407.28;5031018;28;20201;-57
2023/08/21 07:05:33;;;;;;;4.80;3.85;;;;;;;28.07;46.09;98415.41;5030920;28;20201;-57
2023/08/21 07:07:59;;;;;;;7.32;3.90;;;;;;;28.17;45.35;98402.41;5030561;28;20193;-57
2023/08/21 07:10:24;;;;;;;6.93;3.70;;;;;;;28.25;45.25;98386.19;5030719;28;20213;-57
2023/08/21 07:12:49;;;;;;;5.20;4.00;;;;;;;28.48;45.03;98390.94;5030837;28;20178;-58
2023/08/21 07:15:15;;;;;;;8.73;4.43;;;;;;;28.54;44.99;98369.56;5030710;28;20205;-57
2023/08/21 07:17:41;;;;;;;9.85;4.05;;;;;;;28.86;44.56;98395.06;5030554;28;20296;-58
2023/08/21 07:20:08;;;;;;;5.20;4.10;;;;;;;29.00;44.55;98401.09;5030516;28;20193;-58
2023/08/21 07:22:33;;;;;;;7.20;4.03;;;;;;;28.99;44.57;98383.47;5032115;28;20201;-58
2023/08/21 07:25:00;;;;;;;6.78;3.83;;;;;;;29.23;44.70;98401.25;5033024;28;20170;-58
2023/08/21 07:27:26;;;;;;;10.82;4.22;;;;;;;29.31;42.72;98385.75;5032838;28;20194;-58
2023/08/21 07:29:51;;;;;;;8.63;4.00;;;;;;;29.39;42.42;98382.78;5032872;28;20232;-58
2023/08/21 07:32:17;;;;;;;5.25;3.75;;;;;;;29.66;42.63;98402.75;5032705;28;20182;-58
2023/08/21 07:34:42;;;;;;;7.43;4.03;;;;;;;29.58;42.43;98371.09;5032833;28;20174;-58
2023/08/21 07:37:08;;;;;;;4.68;4.15;;;;;;;29.88;42.32;98405.72;5032517;28;20611;-58
2023/08/21 07:39:34;;;;;;;6.00;4.00;;;;;;;29.87;42.11;98380.09;5032650;28;20260;-58
2023/08/21 07:42:00;;;;;;;7.70;4.45;;;;;;;29.87;41.47;98366.75;5032295;28;20184;-58
2023/08/21 07:44:26;;;;;;;6.45;4.50;;;;;;;30.05;41.37;98375.50;5032493;28;20181;-58
2023/08/21 07:46:52;;;;;;;6.75;3.92;;;;;;;30.26;41.62;98404.34;5032225;28;20532;-58
2023/08/21 07:49:17;;;;;;;9.57;4.32;;;;;;;30.32;40.94;98398.09;5032491;28;20181;-58
2023/08/21 07:51:43;;;;;;;6.57;3.97;;;;;;;30.49;40.61;98406.25;5032432;28;20181;-58
2023/08/21 07:54:08;;;;;;;9.80;3.65;;;;;;;30.59;39.40;98401.94;5029755;28;20346;-59
2023/08/21 07:56:35;;;;;;;7.95;3.70;;;;;;;30.89;37.41;98397.31;5029736;28;20242;-58
2023/08/21 07:59:01;;;;;;;7.07;4.10;;;;;;;31.02;37.07;98399.75;5029772;28;20186;-58
2023/08/21 08:01:27;;;;;;;10.30;4.32;;;;;;;31.04;37.20;98392.31;5029859;28;20181;-58
2023/08/21 08:03:52;;;;;;;5.43;3.97;;;;;;;31.00;36.99;98375.13;5029771;28;20252;-57
2023/08/21 08:06:18;;;;;;;12.10;4.65;;;;;;;31.16;36.98;98395.78;5029627;28;20217;-57
2023/08/21 08:08:44;;;;;;;6.97;3.80;;;;;;;31.20;37.12;98402.31;5029283;28;20317;-57
2023/08/21 08:11:10;;;;;;;5.22;3.75;;;;;;;31.19;37.26;98389.19;5029693;28;20189;-58
2023/08/21 08:13:35;;;;;;;5.43;3.90;;;;;;;31.34;37.04;98398.31;5029532;28;20283;-58
2023/08/21 08:16:01;;;;;;;4.57;3.63;;;;;;;31.25;36.45;98361.50;5029615;28;20559;-58
2023/08/21 08:18:26;;;;;;;8.10;3.88;;;;;;;31.47;36.73;98387.34;5029378;28;20248;-58
2023/08/21 08:20:52;;;;;;;9.30;3.95;;;;;;;31.55;36.35;98395.00;5029701;28;20209;-59
2023/08/21 08:23:19;;;;;;;9.02;3.65;;;;;;;31.66;36.38;98401.34;5029479;28;20189;-57
2023/08/21 08:25:45;;;;;;;4.75;3.38;;;;;;;31.61;36.63;98386.03;5031040;28;20553;-58
2023/08/21 08:28:10;;;;;;;9.75;3.90;;;;;;;31.57;36.43;98365.31;5031830;28;20185;-57
2023/08/21 08:30:35;;;;;;;7.82;4.15;;;;;;;31.62;36.52;98368.91;5031787;28;20178;-58
2023/08/21 08:33:01;;;;;;;9.75;3.92;;;;;;;31.75;36.17;98390.06;5032036;28;20181;-58
2023/08/21 08:35:26;;;;;;;4.30;3.85;;;;;;;31.75;35.36;98371.31;5031438;28;20265;-58
2023/08/21 08:37:52;;;;;;;6.35;3.90;;;;;;;31.88;36.23;98379.03;5031654;28;20686;-58
2023/08/21 08:40:17;;;;;;;6.15;3.63;;;;;;;31.87;36.24;98377.41;5031658;28;20269;-58
2023/08/21 08:42:43;;;;;;;8.30;4.15;;;;;;;31.91;35.70;98357.16;5029082;28;20197;-59
2023/08/21 08:45:08;;;;;;;6.80;3.95;;;;;;;31.98;35.68;98359.66;5029161;28;20189;-56
2023/08/21 08:47:35;;;;;;;8.63;3.90;;;;;;;31.97;34.94;98364.22;5029031;28;20190;-57
2023/08/21 08:50:05;;;;;;;5.20;3.97;;;;;;;32.01;34.94;98362.66;5029182;28;20660;-57
2023/08/21 08:52:35;;;;;;;7.90;3.95;;;;;;;32.17;35.20;98377.94;5029125;28;20186;-57
2023/08/21 08:55:02;;;;;;;11.25;4.43;;;;;;;32.11;35.53;98357.47;5029144;28;20239;-58
2023/08/21 08:57:27;;;;;;;5.95;3.65;;;;;;;32.12;35.14;98359.09;5028939;28;20225;-58
2023/08/21 08:59:53;;;;;;;3.85;3.63;;;;;;;32.22;35.64;98359.28;5029057;28;20597;-57
2023/08/21 09:02:18;;;;;;;9.40;4.38;;;;;;;32.27;35.22;98355.88;5028909;28;20228;-57
2023/08/21 09:04:43;;;;;;;8.48;4.13;;;;;;;32.47;35.18;98375.75;5028937;28;20252;-58
2023/08/21 09:07:10;;;;;;;5.60;3.88;;;;;;;32.37;35.55;98348.84;5028747;28;20196;-58
2023/08/21 09:09:45;;;;;;;5.22;4.07;;;;;;;32.61;35.20;98379.75;5028996;28;20185;-58
2023/08/21 09:12:12;;;;;;;8.30;4.13;;;;;;;32.58;34.66;98366.81;5028848;28;20180;-58
2023/08/21 09:14:40;;;;;;;4.55;3.70;;;;;;;32.59;34.54;98354.25;5030795;28;20185;-58
2023/08/21 09:17:06;;;;;;;4.15;3.80;;;;;;;32.77;34.87;98376.22;5028863;28;20662;-58
2023/08/21 09:19:31;;;;;;;5.35;3.72;;;;;;;32.77;34.82;98356.69;5030446;28;20185;-58
2023/08/21 09:21:57;;;;;;;7.85;4.25;;;;;;;32.76;34.96;98338.97;5032815;28;20249;-58
2023/08/21 09:24:23;;;;;;;7.00;4.07;;;;;;;32.96;34.57;98358.00;5032593;28;20178;-58
2023/08/21 09:26:49;;;;;;;9.48;4.32;;;;;;;33.07;33.72;98351.72;5032675;28;20194;-58
2023/08/21 09:29:14;;;;;;;6.93;3.80;;;;;;;33.02;34.05;98339.06;5032788;28;20189;-58
2023/08/21 09:31:40;;;;;;;3.97;3.70;;;;;;;33.18;33.55;98359.66;5032710;28;20190;-58
2023/08/21 09:34:06;;;;;;;5.78;4.05;;;;;;;33.28;33.90;98349.03;5032601;28;20189;-59
2023/08/21 09:36:34;;;;;;;7.90;4.07;;;;;;;33.35;34.18;98336.25;5032444;28;20196;-59
2023/08/21 09:39:00;;;;;;;6.35;4.25;;;;;;;33.34;33.93;98305.09;5032529;28;20265;-57
2023/08/21 09:41:26;;;;;;;7.80;4.50;;;;;;;33.56;33.11;98335.41;5032349;28;20247;-58
2023/08/21 09:43:52;;;;;;;8.07;4.32;;;;;;;33.60;32.97;98333.84;5032337;28;20197;-59
2023/08/21 09:46:24;;;;;;;10.73;4.38;;;;;;;33.67;33.09;98330.94;5032166;28;20186;-59
2023/08/21 09:48:52;;;;;;;8.10;4.30;;;;;;;33.56;33.60;98303.19;5032372;28;20181;-59
2023/08/21 09:51:17;;;;;;;5.90;4.05;;;;;;;33.74;33.12;98310.88;5032204;28;20194;-58
2023/08/21 09:53:44;;;;;;;7.43;3.92;;;;;;;33.91;32.67;98332.28;5032469;28;20204;-57
2023/08/21 09:56:10;;;;;;;8.10;4.20;;;;;;;33.89;31.58;98321.78;5032418;28;20202;-58
2023/08/21 09:58:36;;;;;;;7.18;3.65;;;;;;;33.81;31.18;98310.72;5032078;28;20290;-58
2023/08/21 10:01:11;;;;;;;6.13;3.97;;;;;;;34.03;31.26;98332.94;5032057;28;20193;-58
2023/08/21 10:03:39;;;;;;;5.85;3.70;;;;;;;34.05;31.49;98299.34;5031933;28;20320;-58
2023/08/21 10:06:06;;;;;;;10.52;4.60;;;;;;;34.24;31.94;98332.00;5031936;28;20192;-58
2023/08/21 10:08:36;;;;;;;6.78;3.78;;;;;;;34.22;30.54;98326.88;5031805;28;20198;-58
2023/08/21 10:11:04;;;;;;;9.07;4.05;;;;;;;34.23;31.34;98308.88;5031947;28;20197;-58
2023/08/21 10:13:32;;;;;;;8.55;4.43;;;;;;;34.27;30.59;98304.66;5031894;28;20236;-58
2023/08/21 10:15:57;;;;;;;5.68;3.70;;;;;;;34.38;30.61;98319.78;5031928;28;20177;-58
2023/08/21 10:18:29;;;;;;;5.00;3.72;;;;;;;34.42;30.60;98319.00;5033700;28;20592;-58
2023/08/21 10:20:54;;;;;;;16.50;3.80;;;;;;;34.46;30.84;98298.59;5034256;28;20655;-58
2023/08/21 10:23:29;;;;;;;9.60;4.38;;;;;;;34.42;30.42;98273.31;5051429;28;20181;-58
2023/08/21 10:25:56;;;;;;;10.30;3.88;;;;;;;34.59;30.20;98292.75;5051546;28;20192;-58
2023/08/21 10:28:22;;;;;;;6.18;3.30;;;;;;;34.46;29.58;98277.09;5051527;28;20227;-58
2023/08/21 10:30:48;;;;;;;5.97;3.65;;;;;;;34.50;30.71;98288.94;5051320;28;20188;-58
2023/08/21 10:33:13;;;;;;;5.60;3.63;;;;;;;34.37;30.82;98284.03;5051449;28;20650;-58
2023/08/21 10:35:38;;;;;;;6.22;3.70;;;;;;;34.38;30.80;98293.69;5051397;28;20181;-58
2023/08/21 10:38:11;;;;;;;7.60;3.92;;;;;;;34.35;31.11;98286.19;5051317;28;20251;-58
2023/08/21 10:40:38;;;;;;;6.32;4.18;;;;;;;34.31;30.89;98278.88;5051283;28;20189;-59
2023/08/21 10:43:04;;;;;;;6.88;3.50;;;;;;;34.28;30.16;98258.69;5051290;28;20185;-58
2023/08/21 10:45:30;;;;;;;4.50;3.88;;;;;;;34.24;30.32;98264.84;5051005;28;20227;-58
2023/08/21 10:47:59;;;;;;;6.88;3.47;;;;;;;34.26;30.90;98290.41;5051155;28;20204;-58
2023/08/21 10:50:24;;;;;;;8.10;3.63;;;;;;;34.27;30.23;98288.53;5051089;28;20276;-58
2023/08/21 10:52:53;;;;;;;8.48;3.70;;;;;;;34.23;30.07;98292.78;5051110;28;20263;-58
2023/08/21 10:55:18;;;;;;;4.78;3.03;;;;;;;34.26;29.59;98260.84;5032900;28;20190;-58
2023/08/21 10:57:47;;;;;;;5.85;3.50;;;;;;;34.57;29.13;98268.00;5031052;28;20258;-58
2023/08/21 11:00:14;;;;;;;4.40;3.42;;;;;;;35.04;28.97;98295.69;5031077;28;20648;-58
2023/08/21 11:02:45;;;;;;;8.55;3.28;;;;;;;35.18;28.39;98280.66;5031223;28;20186;-58
2023/08/21 11:05:12;;;;;;;7.18;4.13;;;;;;;35.15;27.90;98264.25;5030896;28;20656;-58
2023/08/21 11:07:46;;;;;;;10.00;3.38;;;;;;;35.05;27.40;98267.72;5030686;28;20193;-58
2023/08/21 11:10:14;;;;;;;5.63;2.90;;;;;;;35.14;27.18;98284.94;5030709;28;20197;-59
2023/08/21 11:12:49;;;;;;;3.53;3.05;;;;;;;34.89;27.84;98260.66;5030817;28;20177;-59
2023/08/21 11:15:17;;;;;;;10.98;3.50;;;;;;;34.82;28.48;98254.72;5030590;28;20652;-59
2023/08/21 11:17:42;;;;;;;3.47;3.22;;;;;;;34.87;28.14;98272.75;5030621;28;20719;-58
2023/08/21 11:20:08;;;;;;;10.45;3.53;;;;;;;34.83;28.40;98272.47;5030626;28;20186;-58
2023/08/21 11:22:34;;;;;;;3.33;3.03;;;;;;;34.72;28.58;98278.84;5030681;28;20273;-58
2023/08/21 11:24:59;;;;;;;5.50;3.60;;;;;;;34.54;28.77;98257.78;5030539;28;20197;-58
2023/08/21 11:27:25;;;;;;;8.82;2.90;;;;;;;34.59;28.35;98240.88;4990973;28;20194;-58
2023/08/21 11:29:51;;;;;;;5.05;3.20;;;;;;;35.13;28.23;98266.38;4991164;28;20269;-58